sensor_id;sensor_type;location;lat;lon;timestamp;P1;durP1;ratioP1;P2;durP2;ratioP2
19653;SDS011;9975;48.046;7.804;2022-08-20T02:04:14;20.87;;;14.20;;
19653;SDS011;9975;48.046;7.804;2022-08-20T02:06:43;22.13;;;16.07;;
19653;SDS011;9975;48.046;7.804;2022-08-20T02:09:11;21.93;;;15.27;;
19653;SDS011;9975;48.046;7.804;2022-08-20T02:11:37;17.50;;;13.53;;
19653;SDS011;9975;48.046;7.804;2022-08-20T02:14:06;20.53;;;14.20;;
19653;SDS011;9975;48.046;7.804;2022-08-20T02:16:35;16.70;;;12.73;;
19653;SDS011;9975;48.046;7.804;2022-08-20T02:19:06;17.37;;;13.37;;
19653;SDS011;9975;48.046;7.804;2022-08-20T02:21:38;24.33;;;14.83;;
19653;SDS011;9975;48.046;7.804;2022-08-20T02:24:07;20.93;;;14.83;;
19653;SDS011;9975;48.046;7.804;2022-08-20T02:26:34;20.40;;;15.20;;
19653;SDS011;9975;48.046;7.804;2022-08-20T02:29:03;16.03;;;14.10;;
19653;SDS011;9975;48.046;7.804;2022-08-20T02:31:30;23.63;;;15.33;;
19653;SDS011;9975;48.046;7.804;2022-08-20T02:33:56;20.60;;;14.33;;
19653;SDS011;9975;48.046;7.804;2022-08-20T02:36:22;19.80;;;13.83;;
19653;SDS011;9975;48.046;7.804;2022-08-20T02:38:47;16.07;;;13.00;;
19653;SDS011;9975;48.046;7.804;2022-08-20T02:41:13;18.97;;;13.20;;
19653;SDS011;9975;48.046;7.804;2022-08-20T02:43:39;16.73;;;12.50;;
19653;SDS011;9975;48.046;7.804;2022-08-20T02:46:05;16.80;;;13.93;;
19653;SDS011;9975;48.046;7.804;2022-08-20T02:48:32;16.47;;;12.33;;
19653;SDS011;9975;48.046;7.804;2022-08-20T02:50:59;15.57;;;12.77;;
19653;SDS011;9975;48.046;7.804;2022-08-20T02:53:28;15.17;;;13.53;;
19653;SDS011;9975;48.046;7.804;2022-08-20T02:55:55;18.87;;;13.20;;
19653;SDS011;9975;48.046;7.804;2022-08-20T02:58:21;18.70;;;14.60;;
19653;SDS011;9975;48.046;7.804;2022-08-20T03:00:47;14.63;;;13.03;;
19653;SDS011;9975;48.046;7.804;2022-08-20T03:03:13;16.83;;;12.37;;
19653;SDS011;9975;48.046;7.804;2022-08-20T03:05:40;15.03;;;12.57;;
19653;SDS011;9975;48.046;7.804;2022-08-20T03:08:08;14.33;;;11.60;;
19653;SDS011;9975;48.046;7.804;2022-08-20T03:10:35;19.13;;;12.63;;
19653;SDS011;9975;48.046;7.804;2022-08-20T03:13:03;16.67;;;12.73;;
19653;SDS011;9975;48.046;7.804;2022-08-20T03:15:30;16.90;;;12.20;;
19653;SDS011;9975;48.046;7.804;2022-08-20T03:17:57;18.53;;;12.47;;
19653;SDS011;9975;48.046;7.804;2022-08-20T03:20:23;15.57;;;11.33;;
19653;SDS011;9975;48.046;7.804;2022-08-20T03:22:50;19.97;;;13.80;;
19653;SDS011;9975;48.046;7.804;2022-08-20T03:25:16;14.43;;;12.43;;
19653;SDS011;9975;48.046;7.804;2022-08-20T03:27:42;14.47;;;12.73;;
19653;SDS011;9975;48.046;7.804;2022-08-20T03:30:10;15.77;;;12.17;;
19653;SDS011;9975;48.046;7.804;2022-08-20T03:32:37;12.97;;;10.73;;
19653;SDS011;9975;48.046;7.804;2022-08-20T03:35:05;15.70;;;12.17;;
19653;SDS011;9975;48.046;7.804;2022-08-20T03:37:33;16.50;;;12.73;;
19653;SDS011;9975;48.046;7.804;2022-08-20T03:40:00;14.83;;;12.03;;
19653;SDS011;9975;48.046;7.804;2022-08-20T03:42:28;20.20;;;11.93;;
19653;SDS011;9975;48.046;7.804;2022-08-20T03:44:54;13.20;;;10.47;;
19653;SDS011;9975;48.046;7.804;2022-08-20T03:47:19;15.00;;;11.90;;
19653;SDS011;9975;48.046;7.804;2022-08-20T03:49:45;17.30;;;12.93;;
19653;SDS011;9975;48.046;7.804;2022-08-20T03:52:11;16.73;;;12.40;;
19653;SDS011;9975;48.046;7.804;2022-08-20T03:54:37;15.13;;;11.50;;
19653;SDS011;9975;48.046;7.804;2022-08-20T03:57:03;17.80;;;11.83;;
19653;SDS011;9975;48.046;7.804;2022-08-20T03:59:29;13.10;;;10.93;;
19653;SDS011;9975;48.046;7.804;2022-08-20T04:01:58;13.33;;;11.27;;
19653;SDS011;9975;48.046;7.804;2022-08-20T04:04:25;13.23;;;9.97;;
19653;SDS011;9975;48.046;7.804;2022-08-20T04:06:51;13.67;;;11.10;;
19653;SDS011;9975;48.046;7.804;2022-08-20T04:09:16;12.70;;;11.30;;
19653;SDS011;9975;48.046;7.804;2022-08-20T04:11:42;15.70;;;12.73;;
19653;SDS011;9975;48.046;7.804;2022-08-20T04:14:09;17.03;;;11.57;;
19653;SDS011;9975;48.046;7.804;2022-08-20T04:16:36;11.90;;;10.70;;
19653;SDS011;9975;48.046;7.804;2022-08-20T04:19:02;15.90;;;10.90;;
19653;SDS011;9975;48.046;7.804;2022-08-20T04:21:29;12.00;;;10.70;;
19653;SDS011;9975;48.046;7.804;2022-08-20T04:23:56;13.70;;;11.67;;
19653;SDS011;9975;48.046;7.804;2022-08-20T04:26:22;12.90;;;11.20;;
19653;SDS011;9975;48.046;7.804;2022-08-20T04:28:48;16.10;;;11.40;;
19653;SDS011;9975;48.046;7.804;2022-08-20T04:31:19;17.77;;;12.40;;
19653;SDS011;9975;48.046;7.804;2022-08-20T04:33:48;17.77;;;11.97;;
19653;SDS011;9975;48.046;7.804;2022-08-20T04:36:14;14.50;;;11.60;;
19653;SDS011;9975;48.046;7.804;2022-08-20T04:38:39;15.00;;;10.87;;
19653;SDS011;9975;48.046;7.804;2022-08-20T04:41:05;11.23;;;10.00;;
19653;SDS011;9975;48.046;7.804;2022-08-20T04:43:33;12.40;;;10.77;;
19653;SDS011;9975;48.046;7.804;2022-08-20T04:46:02;12.67;;;10.87;;
19653;SDS011;9975;48.046;7.804;2022-08-20T04:48:30;14.20;;;10.37;;
19653;SDS011;9975;48.046;7.804;2022-08-20T04:50:57;12.67;;;11.20;;
19653;SDS011;9975;48.046;7.804;2022-08-20T04:53:24;16.63;;;12.30;;
19653;SDS011;9975;48.046;7.804;2022-08-20T04:55:52;16.93;;;11.23;;
19653;SDS011;9975;48.046;7.804;2022-08-20T04:58:20;15.90;;;12.53;;
19653;SDS011;9975;48.046;7.804;2022-08-20T05:00:50;13.40;;;10.47;;
19653;SDS011;9975;48.046;7.804;2022-08-20T05:03:19;13.37;;;10.83;;
19653;SDS011;9975;48.046;7.804;2022-08-20T05:05:46;12.83;;;10.03;;
19653;SDS011;9975;48.046;7.804;2022-08-20T05:08:12;16.93;;;11.40;;
19653;SDS011;9975;48.046;7.804;2022-08-20T05:10:40;15.23;;;10.00;;
19653;SDS011;9975;48.046;7.804;2022-08-20T05:13:06;17.20;;;10.80;;
19653;SDS011;9975;48.046;7.804;2022-08-20T05:15:32;22.23;;;11.27;;
19653;SDS011;9975;48.046;7.804;2022-08-20T05:17:59;10.47;;;9.37;;
19653;SDS011;9975;48.046;7.804;2022-08-20T05:20:27;11.77;;;10.57;;
19653;SDS011;9975;48.046;7.804;2022-08-20T05:22:55;13.50;;;10.53;;
19653;SDS011;9975;48.046;7.804;2022-08-20T05:25:22;14.07;;;11.63;;
19653;SDS011;9975;48.046;7.804;2022-08-20T05:27:47;12.10;;;9.93;;
19653;SDS011;9975;48.046;7.804;2022-08-20T05:30:13;12.20;;;10.57;;
19653;SDS011;9975;48.046;7.804;2022-08-20T05:32:39;12.50;;;9.23;;
19653;SDS011;9975;48.046;7.804;2022-08-20T05:35:06;15.60;;;10.63;;
19653;SDS011;9975;48.046;7.804;2022-08-20T05:37:34;14.10;;;9.97;;
19653;SDS011;9975;48.046;7.804;2022-08-20T05:40:01;10.50;;;8.60;;
19653;SDS011;9975;48.046;7.804;2022-08-20T05:42:35;13.40;;;9.70;;
19653;SDS011;9975;48.046;7.804;2022-08-20T05:45:01;9.50;;;8.37;;
19653;SDS011;9975;48.046;7.804;2022-08-20T05:47:28;8.33;;;7.43;;
19653;SDS011;9975;48.046;7.804;2022-08-20T05:49:54;7.97;;;7.17;;
19653;SDS011;9975;48.046;7.804;2022-08-20T05:52:20;9.00;;;6.20;;
19653;SDS011;9975;48.046;7.804;2022-08-20T05:54:45;8.70;;;6.00;;
19653;SDS011;9975;48.046;7.804;2022-08-20T05:57:11;8.90;;;5.30;;
19653;SDS011;9975;48.046;7.804;2022-08-20T05:59:38;9.40;;;5.37;;
19653;SDS011;9975;48.046;7.804;2022-08-20T06:02:04;5.60;;;4.83;;
19653;SDS011;9975;48.046;7.804;2022-08-20T06:04:49;8.30;;;4.80;;
19653;SDS011;9975;48.046;7.804;2022-08-20T06:07:15;4.70;;;4.10;;
19653;SDS011;9975;48.046;7.804;2022-08-20T06:09:41;6.33;;;4.87;;
19653;SDS011;9975;48.046;7.804;2022-08-20T06:12:06;6.70;;;5.60;;
19653;SDS011;9975;48.046;7.804;2022-08-20T06:14:33;5.57;;;5.00;;
19653;SDS011;9975;48.046;7.804;2022-08-20T06:17:07;5.83;;;4.63;;
19653;SDS011;9975;48.046;7.804;2022-08-20T06:19:38;8.33;;;4.60;;
19653;SDS011;9975;48.046;7.804;2022-08-20T06:22:05;5.53;;;4.10;;
19653;SDS011;9975;48.046;7.804;2022-08-20T06:24:31;9.67;;;5.10;;
19653;SDS011;9975;48.046;7.804;2022-08-20T06:26:57;6.23;;;4.40;;
19653;SDS011;9975;48.046;7.804;2022-08-20T06:29:24;6.33;;;4.47;;
19653;SDS011;9975;48.046;7.804;2022-08-20T06:31:51;4.50;;;3.30;;
19653;SDS011;9975;48.046;7.804;2022-08-20T06:34:17;4.00;;;3.60;;
19653;SDS011;9975;48.046;7.804;2022-08-20T06:36:43;5.07;;;4.10;;
19653;SDS011;9975;48.046;7.804;2022-08-20T06:39:12;3.43;;;3.13;;
19653;SDS011;9975;48.046;7.804;2022-08-20T06:41:38;3.77;;;3.37;;
19653;SDS011;9975;48.046;7.804;2022-08-20T06:44:04;2.70;;;2.37;;
19653;SDS011;9975;48.046;7.804;2022-08-20T06:46:31;4.03;;;2.63;;
19653;SDS011;9975;48.046;7.804;2022-08-20T06:48:58;9.33;;;2.80;;
19653;SDS011;9975;48.046;7.804;2022-08-20T06:51:24;4.63;;;3.10;;
19653;SDS011;9975;48.046;7.804;2022-08-20T06:53:49;4.43;;;2.40;;
19653;SDS011;9975;48.046;7.804;2022-08-20T06:56:15;3.90;;;2.27;;
19653;SDS011;9975;48.046;7.804;2022-08-20T06:58:40;3.63;;;2.60;;
19653;SDS011;9975;48.046;7.804;2022-08-20T07:01:08;4.30;;;3.27;;
19653;SDS011;9975;48.046;7.804;2022-08-20T07:03:35;6.70;;;3.10;;
19653;SDS011;9975;48.046;7.804;2022-08-20T07:06:02;6.90;;;2.40;;
19653;SDS011;9975;48.046;7.804;2022-08-20T07:08:28;2.47;;;2.27;;
19653;SDS011;9975;48.046;7.804;2022-08-20T07:10:54;3.53;;;2.60;;
19653;SDS011;9975;48.046;7.804;2022-08-20T07:13:20;4.00;;;2.60;;
19653;SDS011;9975;48.046;7.804;2022-08-20T07:15:45;2.67;;;2.30;;
19653;SDS011;9975;48.046;7.804;2022-08-20T07:18:12;2.93;;;2.67;;
19653;SDS011;9975;48.046;7.804;2022-08-20T07:20:38;3.70;;;2.90;;
19653;SDS011;9975;48.046;7.804;2022-08-20T07:23:04;2.87;;;2.67;;
19653;SDS011;9975;48.046;7.804;2022-08-20T07:25:31;3.00;;;2.60;;
19653;SDS011;9975;48.046;7.804;2022-08-20T07:28:01;3.80;;;3.30;;
19653;SDS011;9975;48.046;7.804;2022-08-20T07:30:29;2.83;;;2.53;;
19653;SDS011;9975;48.046;7.804;2022-08-20T07:33:13;5.67;;;2.97;;
19653;SDS011;9975;48.046;7.804;2022-08-20T07:35:40;3.00;;;2.07;;
19653;SDS011;9975;48.046;7.804;2022-08-20T07:38:06;2.80;;;2.57;;
19653;SDS011;9975;48.046;7.804;2022-08-20T07:40:38;4.10;;;2.97;;
19653;SDS011;9975;48.046;7.804;2022-08-20T07:43:05;2.10;;;1.90;;
19653;SDS011;9975;48.046;7.804;2022-08-20T07:45:30;4.23;;;1.67;;
19653;SDS011;9975;48.046;7.804;2022-08-20T07:48:04;2.43;;;1.67;;
19653;SDS011;9975;48.046;7.804;2022-08-20T07:50:33;1.60;;;1.50;;
19653;SDS011;9975;48.046;7.804;2022-08-20T07:52:59;2.57;;;2.37;;
19653;SDS011;9975;48.046;7.804;2022-08-20T07:55:25;2.20;;;1.70;;
19653;SDS011;9975;48.046;7.804;2022-08-20T07:57:51;1.83;;;1.60;;
19653;SDS011;9975;48.046;7.804;2022-08-20T08:00:18;2.20;;;1.57;;
19653;SDS011;9975;48.046;7.804;2022-08-20T08:02:46;1.37;;;1.13;;
19653;SDS011;9975;48.046;7.804;2022-08-20T08:05:12;2.17;;;1.50;;
19653;SDS011;9975;48.046;7.804;2022-08-20T08:07:37;1.50;;;1.40;;
19653;SDS011;9975;48.046;7.804;2022-08-20T08:10:04;2.90;;;1.27;;
19653;SDS011;9975;48.046;7.804;2022-08-20T08:12:34;2.17;;;1.43;;
19653;SDS011;9975;48.046;7.804;2022-08-20T08:15:03;6.20;;;1.30;;
19653;SDS011;9975;48.046;7.804;2022-08-20T08:17:31;1.90;;;1.00;;
19653;SDS011;9975;48.046;7.804;2022-08-20T08:19:57;2.10;;;1.03;;
19653;SDS011;9975;48.046;7.804;2022-08-20T08:22:23;0.97;;;0.97;;
19653;SDS011;9975;48.046;7.804;2022-08-20T08:24:49;1.10;;;0.73;;
19653;SDS011;9975;48.046;7.804;2022-08-20T08:27:15;1.13;;;0.80;;
19653;SDS011;9975;48.046;7.804;2022-08-20T08:29:44;0.90;;;0.90;;
19653;SDS011;9975;48.046;7.804;2022-08-20T08:32:09;0.80;;;0.80;;
19653;SDS011;9975;48.046;7.804;2022-08-20T08:34:36;1.23;;;0.93;;
19653;SDS011;9975;48.046;7.804;2022-08-20T08:37:02;0.73;;;0.73;;
19653;SDS011;9975;48.046;7.804;2022-08-20T08:39:29;2.33;;;1.20;;
19653;SDS011;9975;48.046;7.804;2022-08-20T08:41:55;1.13;;;1.03;;
19653;SDS011;9975;48.046;7.804;2022-08-20T08:44:26;1.47;;;1.07;;
19653;SDS011;9975;48.046;7.804;2022-08-20T08:47:18;1.57;;;1.40;;
19653;SDS011;9975;48.046;7.804;2022-08-20T08:49:53;1.50;;;1.07;;
19653;SDS011;9975;48.046;7.804;2022-08-20T08:52:21;1.37;;;1.10;;
19653;SDS011;9975;48.046;7.804;2022-08-20T08:54:51;0.70;;;0.70;;
19653;SDS011;9975;48.046;7.804;2022-08-20T08:57:19;1.50;;;0.80;;
19653;SDS011;9975;48.046;7.804;2022-08-20T08:59:47;1.57;;;0.80;;
19653;SDS011;9975;48.046;7.804;2022-08-20T09:02:20;1.30;;;1.20;;
19653;SDS011;9975;48.046;7.804;2022-08-20T09:04:47;1.90;;;1.27;;
19653;SDS011;9975;48.046;7.804;2022-08-20T09:07:15;1.83;;;1.50;;
19653;SDS011;9975;48.046;7.804;2022-08-20T09:09:42;1.80;;;1.70;;
19653;SDS011;9975;48.046;7.804;2022-08-20T09:12:12;1.90;;;1.50;;
19653;SDS011;9975;48.046;7.804;2022-08-20T09:14:43;1.63;;;1.53;;
19653;SDS011;9975;48.046;7.804;2022-08-20T09:17:11;1.47;;;1.33;;
19653;SDS011;9975;48.046;7.804;2022-08-20T09:19:38;2.03;;;1.80;;
19653;SDS011;9975;48.046;7.804;2022-08-20T09:22:11;5.17;;;4.40;;
19653;SDS011;9975;48.046;7.804;2022-08-20T09:24:38;4.77;;;3.57;;
19653;SDS011;9975;48.046;7.804;2022-08-20T09:27:04;3.13;;;2.83;;
19653;SDS011;9975;48.046;7.804;2022-08-20T09:29:30;1.47;;;1.37;;
19653;SDS011;9975;48.046;7.804;2022-08-20T09:32:07;3.53;;;1.70;;
19653;SDS011;9975;48.046;7.804;2022-08-20T09:34:42;1.30;;;1.20;;
19653;SDS011;9975;48.046;7.804;2022-08-20T09:37:10;1.10;;;1.10;;
19653;SDS011;9975;48.046;7.804;2022-08-20T09:39:36;1.30;;;1.20;;
19653;SDS011;9975;48.046;7.804;2022-08-20T09:42:21;3.83;;;2.47;;
19653;SDS011;9975;48.046;7.804;2022-08-20T09:44:48;1.87;;;1.77;;
19653;SDS011;9975;48.046;7.804;2022-08-20T09:47:14;1.50;;;1.40;;
19653;SDS011;9975;48.046;7.804;2022-08-20T09:49:41;3.30;;;2.23;;
19653;SDS011;9975;48.046;7.804;2022-08-20T09:52:09;1.47;;;1.37;;
19653;SDS011;9975;48.046;7.804;2022-08-20T09:54:42;2.50;;;2.30;;
19653;SDS011;9975;48.046;7.804;2022-08-20T09:57:08;4.20;;;3.90;;
19653;SDS011;9975;48.046;7.804;2022-08-20T09:59:34;1.40;;;1.20;;
19653;SDS011;9975;48.046;7.804;2022-08-20T10:02:00;1.33;;;1.23;;
19653;SDS011;9975;48.046;7.804;2022-08-20T10:04:26;1.23;;;1.13;;
19653;SDS011;9975;48.046;7.804;2022-08-20T10:06:52;1.63;;;1.47;;
19653;SDS011;9975;48.046;7.804;2022-08-20T10:09:18;3.57;;;1.60;;
19653;SDS011;9975;48.046;7.804;2022-08-20T10:11:43;1.77;;;1.30;;
19653;SDS011;9975;48.046;7.804;2022-08-20T10:14:09;1.17;;;1.07;;
19653;SDS011;9975;48.046;7.804;2022-08-20T10:16:35;1.20;;;1.00;;
19653;SDS011;9975;48.046;7.804;2022-08-20T10:19:01;1.50;;;0.90;;
19653;SDS011;9975;48.046;7.804;2022-08-20T10:21:28;1.73;;;1.63;;
19653;SDS011;9975;48.046;7.804;2022-08-20T10:23:54;1.20;;;1.10;;
19653;SDS011;9975;48.046;7.804;2022-08-20T10:26:20;3.10;;;2.07;;
19653;SDS011;9975;48.046;7.804;2022-08-20T10:28:46;1.37;;;1.27;;
19653;SDS011;9975;48.046;7.804;2022-08-20T10:31:12;1.40;;;1.30;;
19653;SDS011;9975;48.046;7.804;2022-08-20T10:33:38;1.30;;;1.20;;
19653;SDS011;9975;48.046;7.804;2022-08-20T10:36:09;1.43;;;1.33;;
19653;SDS011;9975;48.046;7.804;2022-08-20T10:38:36;1.40;;;1.30;;
19653;SDS011;9975;48.046;7.804;2022-08-20T10:41:02;1.10;;;1.03;;
19653;SDS011;9975;48.046;7.804;2022-08-20T10:43:28;1.00;;;1.00;;
19653;SDS011;9975;48.046;7.804;2022-08-20T10:45:54;2.63;;;1.10;;
19653;SDS011;9975;48.046;7.804;2022-08-20T10:48:20;1.10;;;1.10;;
19653;SDS011;9975;48.046;7.804;2022-08-20T10:50:46;0.90;;;0.90;;
19653;SDS011;9975;48.046;7.804;2022-08-20T10:53:11;1.10;;;1.00;;
19653;SDS011;9975;48.046;7.804;2022-08-20T10:55:37;1.63;;;1.27;;
19653;SDS011;9975;48.046;7.804;2022-08-20T10:58:06;0.77;;;0.77;;
19653;SDS011;9975;48.046;7.804;2022-08-20T11:00:32;1.07;;;1.00;;
19653;SDS011;9975;48.046;7.804;2022-08-20T11:02:59;0.77;;;0.77;;
19653;SDS011;9975;48.046;7.804;2022-08-20T11:05:25;1.07;;;1.07;;
19653;SDS011;9975;48.046;7.804;2022-08-20T11:07:50;1.23;;;0.97;;
19653;SDS011;9975;48.046;7.804;2022-08-20T11:10:16;0.87;;;0.87;;
19653;SDS011;9975;48.046;7.804;2022-08-20T11:12:42;1.10;;;1.00;;
19653;SDS011;9975;48.046;7.804;2022-08-20T11:15:09;1.13;;;1.03;;
19653;SDS011;9975;48.046;7.804;2022-08-20T11:17:36;1.00;;;1.00;;
19653;SDS011;9975;48.046;7.804;2022-08-20T11:20:04;1.07;;;1.07;;
19653;SDS011;9975;48.046;7.804;2022-08-20T11:22:31;0.90;;;0.90;;
19653;SDS011;9975;48.046;7.804;2022-08-20T11:24:58;1.00;;;1.00;;
19653;SDS011;9975;48.046;7.804;2022-08-20T11:27:30;1.13;;;1.07;;
19653;SDS011;9975;48.046;7.804;2022-08-20T11:29:57;0.90;;;0.90;;
19653;SDS011;9975;48.046;7.804;2022-08-20T11:32:23;1.00;;;0.87;;
19653;SDS011;9975;48.046;7.804;2022-08-20T11:34:49;0.93;;;0.80;;
19653;SDS011;9975;48.046;7.804;2022-08-20T11:37:16;0.77;;;0.77;;
19653;SDS011;9975;48.046;7.804;2022-08-20T11:39:43;1.10;;;1.10;;
19653;SDS011;9975;48.046;7.804;2022-08-20T11:42:11;0.83;;;0.83;;
19653;SDS011;9975;48.046;7.804;2022-08-20T11:44:37;0.97;;;0.97;;
19653;SDS011;9975;48.046;7.804;2022-08-20T11:47:03;0.90;;;0.90;;
19653;SDS011;9975;48.046;7.804;2022-08-20T11:49:31;0.60;;;0.60;;
19653;SDS011;9975;48.046;7.804;2022-08-20T11:51:58;0.80;;;0.80;;
19653;SDS011;9975;48.046;7.804;2022-08-20T11:54:24;0.80;;;0.80;;
19653;SDS011;9975;48.046;7.804;2022-08-20T11:56:49;1.10;;;1.00;;
19653;SDS011;9975;48.046;7.804;2022-08-20T11:59:15;0.80;;;0.80;;
19653;SDS011;9975;48.046;7.804;2022-08-20T12:01:42;0.90;;;0.90;;
19653;SDS011;9975;48.046;7.804;2022-08-20T12:04:07;0.87;;;0.80;;
19653;SDS011;9975;48.046;7.804;2022-08-20T12:06:33;0.70;;;0.70;;
19653;SDS011;9975;48.046;7.804;2022-08-20T12:08:59;0.73;;;0.73;;
19653;SDS011;9975;48.046;7.804;2022-08-20T12:11:24;1.27;;;1.20;;
19653;SDS011;9975;48.046;7.804;2022-08-20T12:13:50;0.90;;;0.90;;
19653;SDS011;9975;48.046;7.804;2022-08-20T12:16:18;0.93;;;0.93;;
19653;SDS011;9975;48.046;7.804;2022-08-20T12:18:44;0.80;;;0.57;;
19653;SDS011;9975;48.046;7.804;2022-08-20T12:21:10;0.70;;;0.70;;
19653;SDS011;9975;48.046;7.804;2022-08-20T12:23:36;0.67;;;0.67;;
19653;SDS011;9975;48.046;7.804;2022-08-20T12:26:02;0.67;;;0.50;;
19653;SDS011;9975;48.046;7.804;2022-08-20T12:28:28;1.73;;;0.73;;
19653;SDS011;9975;48.046;7.804;2022-08-20T12:30:55;1.10;;;0.67;;
19653;SDS011;9975;48.046;7.804;2022-08-20T12:33:22;0.87;;;0.70;;
19653;SDS011;9975;48.046;7.804;2022-08-20T12:35:48;0.80;;;0.80;;
19653;SDS011;9975;48.046;7.804;2022-08-20T12:38:13;1.33;;;0.70;;
19653;SDS011;9975;48.046;7.804;2022-08-20T12:40:39;3.20;;;1.00;;
19653;SDS011;9975;48.046;7.804;2022-08-20T12:43:05;1.10;;;1.00;;
19653;SDS011;9975;48.046;7.804;2022-08-20T12:45:32;3.33;;;1.10;;
19653;SDS011;9975;48.046;7.804;2022-08-20T12:47:59;2.43;;;0.90;;
19653;SDS011;9975;48.046;7.804;2022-08-20T12:50:26;1.27;;;1.17;;
19653;SDS011;9975;48.046;7.804;2022-08-20T12:52:52;2.20;;;0.87;;
19653;SDS011;9975;48.046;7.804;2022-08-20T12:55:18;2.77;;;1.20;;
19653;SDS011;9975;48.046;7.804;2022-08-20T12:57:45;1.03;;;1.00;;
19653;SDS011;9975;48.046;7.804;2022-08-20T13:00:18;0.87;;;0.70;;
19653;SDS011;9975;48.046;7.804;2022-08-20T13:02:47;1.00;;;0.90;;
19653;SDS011;9975;48.046;7.804;2022-08-20T13:05:14;1.50;;;1.07;;
19653;SDS011;9975;48.046;7.804;2022-08-20T13:07:40;1.63;;;0.93;;
19653;SDS011;9975;48.046;7.804;2022-08-20T13:10:11;1.37;;;0.90;;
19653;SDS011;9975;48.046;7.804;2022-08-20T13:12:42;0.77;;;0.77;;
19653;SDS011;9975;48.046;7.804;2022-08-20T13:15:08;1.70;;;1.07;;
19653;SDS011;9975;48.046;7.804;2022-08-20T13:17:34;0.80;;;0.80;;
19653;SDS011;9975;48.046;7.804;2022-08-20T13:20:05;0.70;;;0.70;;
19653;SDS011;9975;48.046;7.804;2022-08-20T13:22:33;1.17;;;0.60;;
19653;SDS011;9975;48.046;7.804;2022-08-20T13:24:58;0.80;;;0.80;;
19653;SDS011;9975;48.046;7.804;2022-08-20T13:27:24;0.70;;;0.70;;
19653;SDS011;9975;48.046;7.804;2022-08-20T13:29:51;1.07;;;0.60;;
19653;SDS011;9975;48.046;7.804;2022-08-20T13:32:18;0.70;;;0.53;;
19653;SDS011;9975;48.046;7.804;2022-08-20T13:34:45;0.87;;;0.70;;
19653;SDS011;9975;48.046;7.804;2022-08-20T13:39:40;0.80;;;0.70;;
19653;SDS011;9975;48.046;7.804;2022-08-20T13:42:07;1.17;;;0.90;;
19653;SDS011;9975;48.046;7.804;2022-08-20T13:44:33;1.90;;;0.90;;
19653;SDS011;9975;48.046;7.804;2022-08-20T13:46:58;1.67;;;1.57;;
19653;SDS011;9975;48.046;7.804;2022-08-20T13:49:24;1.03;;;0.90;;
19653;SDS011;9975;48.046;7.804;2022-08-20T13:51:50;0.77;;;0.77;;
19653;SDS011;9975;48.046;7.804;2022-08-20T13:54:16;1.10;;;1.00;;
19653;SDS011;9975;48.046;7.804;2022-08-20T13:56:42;0.77;;;0.77;;
19653;SDS011;9975;48.046;7.804;2022-08-20T13:59:07;0.80;;;0.70;;
19653;SDS011;9975;48.046;7.804;2022-08-20T14:01:33;1.00;;;1.00;;
19653;SDS011;9975;48.046;7.804;2022-08-20T14:03:59;0.97;;;0.67;;
19653;SDS011;9975;48.046;7.804;2022-08-20T14:06:24;0.80;;;0.80;;
19653;SDS011;9975;48.046;7.804;2022-08-20T14:08:50;1.00;;;0.87;;
19653;SDS011;9975;48.046;7.804;2022-08-20T14:11:16;0.80;;;0.70;;
19653;SDS011;9975;48.046;7.804;2022-08-20T14:13:45;0.67;;;0.60;;
19653;SDS011;9975;48.046;7.804;2022-08-20T14:16:11;0.70;;;0.70;;
19653;SDS011;9975;48.046;7.804;2022-08-20T14:18:37;0.60;;;0.50;;
19653;SDS011;9975;48.046;7.804;2022-08-20T14:21:02;0.90;;;0.90;;
19653;SDS011;9975;48.046;7.804;2022-08-20T14:23:28;0.60;;;0.60;;
19653;SDS011;9975;48.046;7.804;2022-08-20T14:25:57;0.70;;;0.70;;
19653;SDS011;9975;48.046;7.804;2022-08-20T14:28:23;0.70;;;0.60;;
19653;SDS011;9975;48.046;7.804;2022-08-20T14:30:49;1.27;;;1.03;;
19653;SDS011;9975;48.046;7.804;2022-08-20T14:33:16;0.83;;;0.80;;
19653;SDS011;9975;48.046;7.804;2022-08-20T14:35:41;0.67;;;0.50;;
19653;SDS011;9975;48.046;7.804;2022-08-20T14:38:07;2.30;;;0.70;;
19653;SDS011;9975;48.046;7.804;2022-08-20T14:40:33;1.43;;;0.70;;
19653;SDS011;9975;48.046;7.804;2022-08-20T14:42:59;2.57;;;0.87;;
19653;SDS011;9975;48.046;7.804;2022-08-20T14:45:25;1.27;;;1.17;;
19653;SDS011;9975;48.046;7.804;2022-08-20T14:47:51;0.80;;;0.80;;
19653;SDS011;9975;48.046;7.804;2022-08-20T14:50:23;1.17;;;1.10;;
19653;SDS011;9975;48.046;7.804;2022-08-20T14:52:50;1.27;;;1.17;;
19653;SDS011;9975;48.046;7.804;2022-08-20T14:55:17;1.97;;;1.20;;
19653;SDS011;9975;48.046;7.804;2022-08-20T14:57:50;1.33;;;1.20;;
19653;SDS011;9975;48.046;7.804;2022-08-20T15:00:18;1.50;;;1.00;;
19653;SDS011;9975;48.046;7.804;2022-08-20T15:02:46;1.47;;;1.37;;
19653;SDS011;9975;48.046;7.804;2022-08-20T15:05:12;1.27;;;1.17;;
19653;SDS011;9975;48.046;7.804;2022-08-20T15:07:39;1.30;;;1.20;;
19653;SDS011;9975;48.046;7.804;2022-08-20T15:10:14;1.87;;;1.77;;
19653;SDS011;9975;48.046;7.804;2022-08-20T15:12:44;2.00;;;1.17;;
19653;SDS011;9975;48.046;7.804;2022-08-20T15:15:11;0.73;;;0.70;;
19653;SDS011;9975;48.046;7.804;2022-08-20T15:17:37;0.97;;;0.97;;
19653;SDS011;9975;48.046;7.804;2022-08-20T15:20:11;1.00;;;1.00;;
19653;SDS011;9975;48.046;7.804;2022-08-20T15:22:40;1.43;;;0.80;;
19653;SDS011;9975;48.046;7.804;2022-08-20T15:25:07;1.33;;;1.23;;
19653;SDS011;9975;48.046;7.804;2022-08-20T15:27:36;0.70;;;0.70;;
19653;SDS011;9975;48.046;7.804;2022-08-20T15:30:06;0.90;;;0.90;;
19653;SDS011;9975;48.046;7.804;2022-08-20T15:32:35;1.00;;;0.90;;
19653;SDS011;9975;48.046;7.804;2022-08-20T15:35:01;0.80;;;0.80;;
19653;SDS011;9975;48.046;7.804;2022-08-20T15:37:27;1.20;;;1.20;;
19653;SDS011;9975;48.046;7.804;2022-08-20T15:39:53;0.77;;;0.77;;
19653;SDS011;9975;48.046;7.804;2022-08-20T15:42:19;1.00;;;1.00;;
19653;SDS011;9975;48.046;7.804;2022-08-20T15:44:46;2.10;;;1.10;;
19653;SDS011;9975;48.046;7.804;2022-08-20T15:49:41;1.03;;;1.03;;
19653;SDS011;9975;48.046;7.804;2022-08-20T15:52:07;0.97;;;0.90;;
19653;SDS011;9975;48.046;7.804;2022-08-20T15:54:34;0.80;;;0.80;;
19653;SDS011;9975;48.046;7.804;2022-08-20T16:00:08;0.90;;;0.90;;
19653;SDS011;9975;48.046;7.804;2022-08-20T16:03:23;1.10;;;1.00;;
19653;SDS011;9975;48.046;7.804;2022-08-20T16:06:21;1.87;;;1.10;;
19653;SDS011;9975;48.046;7.804;2022-08-20T16:11:50;1.20;;;1.10;;
19653;SDS011;9975;48.046;7.804;2022-08-20T16:14:28;1.00;;;1.00;;
19653;SDS011;9975;48.046;7.804;2022-08-20T16:19:40;1.30;;;1.20;;
19653;SDS011;9975;48.046;7.804;2022-08-20T16:22:20;1.37;;;1.37;;
19653;SDS011;9975;48.046;7.804;2022-08-20T16:24:46;1.37;;;1.20;;
19653;SDS011;9975;48.046;7.804;2022-08-20T16:27:19;2.10;;;0.90;;
19653;SDS011;9975;48.046;7.804;2022-08-20T16:29:53;1.07;;;0.90;;
19653;SDS011;9975;48.046;7.804;2022-08-20T16:35:22;1.10;;;1.00;;
19653;SDS011;9975;48.046;7.804;2022-08-20T16:38:05;0.87;;;0.87;;
19653;SDS011;9975;48.046;7.804;2022-08-20T16:41:07;1.80;;;0.93;;
19653;SDS011;9975;48.046;7.804;2022-08-20T16:43:39;1.20;;;1.10;;
19653;SDS011;9975;48.046;7.804;2022-08-20T16:48:49;0.73;;;0.73;;
19653;SDS011;9975;48.046;7.804;2022-08-20T16:51:29;0.80;;;0.80;;
19653;SDS011;9975;48.046;7.804;2022-08-20T16:54:05;1.40;;;1.10;;
19653;SDS011;9975;48.046;7.804;2022-08-20T16:56:36;3.40;;;2.07;;
19653;SDS011;9975;48.046;7.804;2022-08-20T16:59:08;1.00;;;0.90;;
19653;SDS011;9975;48.046;7.804;2022-08-20T17:01:37;1.13;;;0.97;;
19653;SDS011;9975;48.046;7.804;2022-08-20T17:04:04;0.87;;;0.87;;
19653;SDS011;9975;48.046;7.804;2022-08-20T17:06:33;1.00;;;1.00;;
19653;SDS011;9975;48.046;7.804;2022-08-20T17:09:03;1.13;;;0.80;;
19653;SDS011;9975;48.046;7.804;2022-08-20T17:11:33;2.30;;;1.20;;
19653;SDS011;9975;48.046;7.804;2022-08-20T17:16:48;0.90;;;0.90;;
19653;SDS011;9975;48.046;7.804;2022-08-20T17:19:24;1.00;;;0.83;;
19653;SDS011;9975;48.046;7.804;2022-08-20T17:21:52;1.17;;;0.80;;
19653;SDS011;9975;48.046;7.804;2022-08-20T17:24:21;1.53;;;1.27;;